createdAt,value
2023-01-08T00:01:25.846Z,7.71
2023-01-08T00:03:54.548Z,7.10
2023-01-08T00:06:25.505Z,7.23
2023-01-08T00:08:53.990Z,7.54
2023-01-08T00:11:22.234Z,8.19
2023-01-08T00:13:50.457Z,8.35
2023-01-08T00:16:20.291Z,7.53
2023-01-08T00:18:48.869Z,7.68
2023-01-08T00:21:17.533Z,7.40
2023-01-08T00:23:48.224Z,6.88
2023-01-08T00:26:16.801Z,7.33
2023-01-08T00:28:44.897Z,7.14
2023-01-08T00:31:14.557Z,7.02
2023-01-08T00:33:43.728Z,6.92
2023-01-08T00:36:14.428Z,7.08
2023-01-08T00:38:43.308Z,7.24
2023-01-08T00:41:14.126Z,7.18
2023-01-08T00:43:42.795Z,7.56
2023-01-08T00:46:11.424Z,7.40
2023-01-08T00:48:40.186Z,7.33
2023-01-08T00:51:10.104Z,7.01
2023-01-08T00:53:39.378Z,7.14
2023-01-08T00:56:10.197Z,6.69
2023-01-08T00:58:40.198Z,7.01
2023-01-08T01:01:13.619Z,7.22
2023-01-08T01:03:42.844Z,7.50
2023-01-08T01:06:13.175Z,7.29
2023-01-08T01:08:41.843Z,7.64
2023-01-08T01:11:10.948Z,8.03
2023-01-08T01:13:40.674Z,8.06
2023-01-08T01:16:10.084Z,7.50
2023-01-08T01:18:38.540Z,6.80
2023-01-08T01:21:12.373Z,7.78
2023-01-08T01:23:41.173Z,7.81
2023-01-08T01:26:17.189Z,7.31
2023-01-08T01:28:48.683Z,6.97
2023-01-08T01:31:17.951Z,7.23
2023-01-08T01:33:47.028Z,7.43
2023-01-08T01:36:17.558Z,7.09
2023-01-08T01:38:46.214Z,7.05
2023-01-08T01:41:23.689Z,6.98
2023-01-08T01:43:54.570Z,6.45
2023-01-08T01:46:30.673Z,6.73
2023-01-08T01:49:03.310Z,6.90
2023-01-08T01:51:35.849Z,6.83
2023-01-08T01:54:09.203Z,7.23
2023-01-08T01:56:37.678Z,6.68
2023-01-08T01:59:08.731Z,6.77
2023-01-08T02:01:37.975Z,7.20
2023-01-08T02:04:07.424Z,7.10
2023-01-08T02:06:39.263Z,6.79
2023-01-08T02:09:19.048Z,6.78
2023-01-08T02:12:10.473Z,7.20
2023-01-08T02:14:48.854Z,7.02
2023-01-08T02:17:23.709Z,6.89
2023-01-08T02:19:57.192Z,6.96
2023-01-08T02:22:36.594Z,7.10
2023-01-08T02:25:13.796Z,6.94
2023-01-08T02:27:46.955Z,6.99
2023-01-08T02:30:15.638Z,6.99
2023-01-08T02:32:44.094Z,7.15
2023-01-08T02:35:13.448Z,7.02
2023-01-08T02:37:43.454Z,6.77
2023-01-08T02:40:21.043Z,6.74
2023-01-08T02:43:32.855Z,6.58
2023-01-08T02:50:10.842Z,6.55
2023-01-08T02:52:48.631Z,6.83
2023-01-08T02:55:19.127Z,6.70
2023-01-08T02:57:48.198Z,6.75
2023-01-08T03:00:17.504Z,6.98
2023-01-08T03:02:46.374Z,6.89
2023-01-08T03:05:21.962Z,6.75
2023-01-08T03:07:51.980Z,6.60
2023-01-08T03:10:23.474Z,6.73
2023-01-08T03:12:55.357Z,6.66
2023-01-08T03:15:30.547Z,6.49
2023-01-08T03:18:03.976Z,6.61
2023-01-08T03:20:34.871Z,6.58
2023-01-08T03:23:07.642Z,6.42
2023-01-08T03:25:39.372Z,6.36
2023-01-08T03:28:13.884Z,6.34
2023-01-08T03:30:44.088Z,6.41
2023-01-08T03:33:14.426Z,6.20
2023-01-08T03:35:45.225Z,6.23
2023-01-08T03:38:20.471Z,6.10
2023-01-08T03:40:52.786Z,6.30
2023-01-08T03:43:21.246Z,6.27
2023-01-08T03:45:53.074Z,5.85
2023-01-08T03:48:22.212Z,6.37
2023-01-08T03:50:50.545Z,6.43
2023-01-08T03:53:20.477Z,6.55
2023-01-08T03:55:48.756Z,6.55
2023-01-08T03:58:17.035Z,6.59
2023-01-08T04:00:45.159Z,6.49
2023-01-08T04:03:13.592Z,6.59
2023-01-08T04:05:41.607Z,6.50
2023-01-08T04:08:09.652Z,6.57
2023-01-08T04:10:39.089Z,6.53
2023-01-08T04:13:07.255Z,6.66
2023-01-08T04:15:35.782Z,6.74
2023-01-08T04:18:03.920Z,5.99
2023-01-08T04:20:31.991Z,6.23
2023-01-08T04:23:00.015Z,6.39
2023-01-08T04:25:28.457Z,6.10
2023-01-08T04:27:57.918Z,6.44
2023-01-08T04:30:25.977Z,6.28
2023-01-08T04:32:54.164Z,6.24
2023-01-08T04:35:22.331Z,6.09
2023-01-08T04:37:51.150Z,5.92
2023-01-08T04:40:19.494Z,5.99
2023-01-08T04:42:47.454Z,6.17
2023-01-08T04:45:17.271Z,6.08
2023-01-08T04:47:45.378Z,6.08
2023-01-08T04:50:13.736Z,5.87
2023-01-08T04:52:41.758Z,6.30
2023-01-08T04:55:10.189Z,6.16
2023-01-08T04:57:38.426Z,6.20
2023-01-08T05:00:08.379Z,5.98
2023-01-08T05:02:39.845Z,5.99
2023-01-08T05:05:09.180Z,5.89
2023-01-08T05:07:37.440Z,5.97
2023-01-08T05:10:06.249Z,6.35
2023-01-08T05:12:34.252Z,6.75
2023-01-08T05:15:02.519Z,6.42
2023-01-08T05:17:30.585Z,6.47
2023-01-08T05:20:01.383Z,6.63
2023-01-08T05:22:29.513Z,6.21
2023-01-08T05:24:57.598Z,6.20
2023-01-08T05:27:25.811Z,6.26
2023-01-08T05:29:53.772Z,6.34
2023-01-08T05:32:21.929Z,6.14
2023-01-08T05:34:50.494Z,5.91
2023-01-08T05:37:19.959Z,5.76
2023-01-08T05:39:48.012Z,5.73
2023-01-08T05:42:16.396Z,6.04
2023-01-08T05:44:44.947Z,5.94
2023-01-08T05:47:12.938Z,6.33
2023-01-08T05:49:41.232Z,6.12
2023-01-08T05:52:09.290Z,6.16
2023-01-08T05:54:39.103Z,6.41
2023-01-08T05:57:07.072Z,6.51
2023-01-08T05:59:35.116Z,6.29
2023-01-08T06:02:03.651Z,6.13
2023-01-08T06:04:32.052Z,5.82
2023-01-08T06:07:00.464Z,6.00
2023-01-08T06:09:28.858Z,6.13
2023-01-08T06:11:58.706Z,5.95
2023-01-08T06:14:26.901Z,5.88
2023-01-08T06:16:54.940Z,6.22
2023-01-08T06:19:23.885Z,6.06
2023-01-08T06:21:51.886Z,6.16
2023-01-08T06:24:19.955Z,6.65
2023-01-08T06:26:48.329Z,6.38
2023-01-08T06:29:17.874Z,6.35
2023-01-08T06:31:46.245Z,6.20
2023-01-08T06:34:14.706Z,6.43
2023-01-08T06:36:43.104Z,6.28
2023-01-08T06:39:11.298Z,6.17
2023-01-08T06:41:39.656Z,6.11
2023-01-08T06:44:08.041Z,6.15
2023-01-08T06:46:40.458Z,6.26
2023-01-08T06:49:09.226Z,6.16
2023-01-08T06:51:38.210Z,6.25
2023-01-08T06:54:06.987Z,6.30
2023-01-08T06:56:48.863Z,5.84
2023-01-08T06:59:21.245Z,5.99
2023-01-08T07:01:51.451Z,5.94
2023-01-08T07:04:20.478Z,5.97
2023-01-08T07:06:48.640Z,6.05
2023-01-08T07:09:17.311Z,6.06
2023-01-08T07:11:45.768Z,6.06
2023-01-08T07:14:13.914Z,6.34
2023-01-08T07:16:42.317Z,6.44
2023-01-08T07:19:12.629Z,6.62
2023-01-08T07:21:40.840Z,7.20
2023-01-08T07:24:09.380Z,7.01
2023-01-08T07:26:39.741Z,7.20
2023-01-08T07:29:08.397Z,7.14
2023-01-08T07:31:36.831Z,7.03
2023-01-08T07:34:05.415Z,7.42
2023-01-08T07:36:35.259Z,7.06
2023-01-08T07:39:03.906Z,6.58
2023-01-08T07:41:32.285Z,6.43
2023-01-08T07:44:00.891Z,6.37
2023-01-08T07:46:29.061Z,6.40
2023-01-08T07:48:58.137Z,6.35
2023-01-08T07:51:26.559Z,6.47
2023-01-08T07:53:56.807Z,6.80
2023-01-08T07:56:25.985Z,6.77
2023-01-08T07:58:54.710Z,6.72
2023-01-08T08:01:23.163Z,7.84
2023-01-08T08:03:51.948Z,9.92
2023-01-08T08:06:20.431Z,9.90
2023-01-08T08:08:48.830Z,9.33
2023-01-08T08:11:18.278Z,9.72
2023-01-08T08:13:47.679Z,11.00
2023-01-08T08:16:16.036Z,10.59
2023-01-08T08:18:44.459Z,10.08
2023-01-08T08:21:13.057Z,9.57
2023-01-08T08:23:41.838Z,10.18
2023-01-08T08:26:10.736Z,11.85
2023-01-08T08:28:40.615Z,11.73
2023-01-08T08:31:08.831Z,11.31
2023-01-08T08:33:37.711Z,11.55
2023-01-08T08:36:07.244Z,12.03
2023-01-08T08:38:36.119Z,12.87
2023-01-08T08:41:04.485Z,12.24
2023-01-08T08:43:32.960Z,11.40
2023-01-08T08:46:02.913Z,10.13
2023-01-08T08:48:31.257Z,9.31
2023-01-08T08:50:59.408Z,8.28
2023-01-08T08:53:28.099Z,8.39
2023-01-08T08:55:59.199Z,8.11
2023-01-08T08:58:28.040Z,8.32
2023-01-08T09:00:56.856Z,7.91
2023-01-08T09:03:26.763Z,7.91
2023-01-08T09:05:55.139Z,8.81
2023-01-08T09:08:23.516Z,9.28
2023-01-08T09:10:52.695Z,9.29
2023-01-08T09:13:21.170Z,9.48
2023-01-08T09:15:49.624Z,9.54
2023-01-08T09:18:18.306Z,9.58
2023-01-08T09:20:48.534Z,10.22
2023-01-08T09:23:17.110Z,10.45
2023-01-08T09:25:45.205Z,10.27
2023-01-08T09:28:14.217Z,9.15
2023-01-08T09:30:42.591Z,9.96
2023-01-08T09:33:11.453Z,8.73
2023-01-08T09:35:39.803Z,8.54
2023-01-08T09:38:09.883Z,7.77
2023-01-08T09:40:44.807Z,7.91
2023-01-08T09:43:18.792Z,8.20
2023-01-08T09:45:53.151Z,8.43
2023-01-08T09:48:25.392Z,8.40
2023-01-08T09:50:54.234Z,8.58
2023-01-08T09:53:24.706Z,7.70
2023-01-08T09:56:09.269Z,7.33
2023-01-08T09:58:41.158Z,6.96
2023-01-08T10:01:14.737Z,7.19
2023-01-08T10:03:46.326Z,7.13
2023-01-08T10:06:16.833Z,7.32
2023-01-08T10:08:47.330Z,6.73
2023-01-08T10:11:16.616Z,6.71
2023-01-08T10:13:49.404Z,6.79
2023-01-08T10:16:26.590Z,7.44
2023-01-08T10:18:55.028Z,7.00
2023-01-08T10:21:30.839Z,7.16
2023-01-08T10:24:00.378Z,7.52
2023-01-08T10:26:30.962Z,7.17
2023-01-08T10:29:16.394Z,6.80
2023-01-08T10:31:51.587Z,7.48
2023-01-08T10:34:27.869Z,7.11
2023-01-08T10:36:57.405Z,7.29
2023-01-08T10:39:28.524Z,7.65
2023-01-08T10:42:04.867Z,7.59
2023-01-08T10:44:35.967Z,7.59
2023-01-08T10:47:06.706Z,6.86
2023-01-08T10:49:39.318Z,7.13
2023-01-08T10:52:23.493Z,7.05
2023-01-08T10:54:53.351Z,7.05
2023-01-08T10:57:24.618Z,7.55
2023-01-08T10:59:53.310Z,6.96
2023-01-08T11:02:31.246Z,7.38
2023-01-08T11:05:01.034Z,6.77
2023-01-08T11:07:30.310Z,7.27
2023-01-08T11:10:00.186Z,7.49
2023-01-08T11:12:35.891Z,8.45
2023-01-08T11:15:07.423Z,7.76
2023-01-08T11:17:36.323Z,7.23
2023-01-08T11:20:20.738Z,7.75
2023-01-08T11:22:49.142Z,7.65
2023-01-08T11:25:25.798Z,8.41
2023-01-08T11:27:56.033Z,8.07
2023-01-08T11:30:27.504Z,8.69
2023-01-08T11:33:02.801Z,8.63
2023-01-08T11:35:38.057Z,9.22
2023-01-08T11:38:08.397Z,8.01
2023-01-08T11:40:45.730Z,8.12
2023-01-08T11:43:22.496Z,7.35
2023-01-08T11:46:02.180Z,7.25
2023-01-08T11:48:50.011Z,6.95
2023-01-08T11:51:36.520Z,7.49
2023-01-08T11:54:16.043Z,7.73
2023-01-08T11:56:57.539Z,8.18
2023-01-08T11:59:33.258Z,6.94
2023-01-08T12:02:13.932Z,7.32
2023-01-08T12:05:16.515Z,6.99
2023-01-08T12:07:52.268Z,6.50
2023-01-08T12:10:26.123Z,7.08
2023-01-08T12:13:10.921Z,6.41
2023-01-08T12:15:52.963Z,7.02
2023-01-08T12:18:34.414Z,6.25
2023-01-08T12:21:14.408Z,6.82
2023-01-08T12:24:00.551Z,7.09
2023-01-08T12:26:38.736Z,7.01
2023-01-08T12:29:25.725Z,7.12
2023-01-08T12:32:10.543Z,6.22
2023-01-08T12:34:47.658Z,6.90
2023-01-08T12:37:22.966Z,7.06
2023-01-08T12:39:57.011Z,6.74
2023-01-08T12:42:31.035Z,6.43
2023-01-08T12:45:03.316Z,6.19
2023-01-08T12:47:36.906Z,6.68
2023-01-08T12:50:21.828Z,6.03
2023-01-08T12:52:57.518Z,6.36
2023-01-08T12:55:41.800Z,7.17
2023-01-08T12:58:22.679Z,6.90
2023-01-08T13:01:01.400Z,7.34
2023-01-08T13:03:31.348Z,6.83
2023-01-08T13:06:11.792Z,7.15
2023-01-08T13:08:43.402Z,6.69
2023-01-08T13:11:12.087Z,6.98
2023-01-08T13:13:45.294Z,7.27
2023-01-08T13:16:24.706Z,6.88
2023-01-08T13:18:55.607Z,7.36
2023-01-08T13:21:36.345Z,6.78
2023-01-08T13:24:08.256Z,6.57
2023-01-08T13:26:37.980Z,6.46
2023-01-08T13:29:37.981Z,6.98
2023-01-08T13:32:24.762Z,6.64
2023-01-08T13:35:20.349Z,6.42
2023-01-08T13:37:50.225Z,6.43
2023-01-08T13:40:38.407Z,6.15
2023-01-08T13:43:13.352Z,6.81
2023-01-08T13:45:42.620Z,5.98
2023-01-08T13:48:24.512Z,6.37
2023-01-08T13:50:53.786Z,6.02
2023-01-08T13:53:22.988Z,5.99
2023-01-08T13:55:59.136Z,5.83
2023-01-08T13:58:31.097Z,6.20
2023-01-08T14:01:01.629Z,6.15
2023-01-08T14:03:35.421Z,6.03
2023-01-08T14:06:08.493Z,6.44
2023-01-08T14:08:36.750Z,6.07
2023-01-08T14:11:06.624Z,5.99
2023-01-08T14:13:38.212Z,6.42
2023-01-08T14:16:08.228Z,6.47
2023-01-08T14:18:41.412Z,5.95
2023-01-08T14:21:10.351Z,5.61
2023-01-08T14:23:41.480Z,5.52
2023-01-08T14:26:17.893Z,5.98
2023-01-08T14:28:53.500Z,5.81
2023-01-08T14:31:23.765Z,5.72
2023-01-08T14:33:54.929Z,5.86
2023-01-08T14:36:24.469Z,5.76
2023-01-08T14:38:52.789Z,6.19
2023-01-08T14:41:53.430Z,5.99
2023-01-08T14:44:29.231Z,5.92
2023-01-08T14:47:04.929Z,5.51
2023-01-08T14:49:40.866Z,5.84
2023-01-08T14:52:12.905Z,5.79
2023-01-08T14:54:41.263Z,5.65
2023-01-08T14:57:13.225Z,5.57
2023-01-08T14:59:41.473Z,5.55
2023-01-08T15:02:23.561Z,5.39
2023-01-08T15:05:02.865Z,6.13
2023-01-08T15:07:31.902Z,5.78
2023-01-08T15:10:02.727Z,6.21
2023-01-08T15:12:32.771Z,5.87
2023-01-08T15:15:11.396Z,5.88
2023-01-08T15:17:41.510Z,5.79
2023-01-08T15:20:19.118Z,5.59
2023-01-08T15:22:48.267Z,6.03
2023-01-08T15:25:20.044Z,6.54
2023-01-08T15:27:55.196Z,6.23
2023-01-08T15:30:30.081Z,5.96
2023-01-08T15:33:07.714Z,5.72
2023-01-08T15:35:37.203Z,5.86
2023-01-08T15:38:05.534Z,5.75
2023-01-08T15:40:33.831Z,5.39
2023-01-08T15:43:12.963Z,5.65
2023-01-08T15:45:43.377Z,5.75
2023-01-08T15:48:12.406Z,6.03
2023-01-08T15:50:44.881Z,6.08
2023-01-08T15:53:18.070Z,5.97
2023-01-08T15:55:47.054Z,5.97
2023-01-08T15:58:17.197Z,5.89
2023-01-08T16:00:47.566Z,5.62
2023-01-08T16:03:17.344Z,6.35
2023-01-08T16:05:47.504Z,5.67
2023-01-08T16:08:15.578Z,5.67
2023-01-08T16:10:44.174Z,5.75
2023-01-08T16:13:12.479Z,5.82
2023-01-08T16:15:41.374Z,5.61
2023-01-08T16:18:09.570Z,6.15
2023-01-08T16:20:38.414Z,5.87
2023-01-08T16:23:08.713Z,5.73
2023-01-08T16:25:40.077Z,6.01
2023-01-08T16:28:08.792Z,5.75
2023-01-08T16:30:36.966Z,5.75
2023-01-08T16:33:05.415Z,5.99
2023-01-08T16:35:34.158Z,6.21
2023-01-08T16:38:02.188Z,5.90
2023-01-08T16:40:31.951Z,5.60
2023-01-08T16:43:03.160Z,5.85
2023-01-08T16:45:31.670Z,5.94
2023-01-08T16:48:00.081Z,5.71
2023-01-08T16:50:28.643Z,6.14
2023-01-08T16:52:56.850Z,5.36
2023-01-08T16:55:24.929Z,6.12
2023-01-08T16:57:55.558Z,5.98
2023-01-08T17:00:24.079Z,5.65
2023-01-08T17:02:52.319Z,5.84
2023-01-08T17:05:20.804Z,5.39
2023-01-08T17:07:51.993Z,5.67
2023-01-08T17:10:20.195Z,5.46
2023-01-08T17:12:48.271Z,5.68
2023-01-08T17:15:18.555Z,5.82
2023-01-08T17:17:47.349Z,6.01
2023-01-08T17:20:16.513Z,5.71
2023-01-08T17:22:44.852Z,5.94
2023-01-08T17:25:14.366Z,6.12
2023-01-08T17:27:43.449Z,5.93
2023-01-08T17:30:14.170Z,6.28
2023-01-08T17:32:43.829Z,6.30
2023-01-08T17:35:12.249Z,6.46
2023-01-08T17:37:40.402Z,6.21
2023-01-08T17:40:10.196Z,5.87
2023-01-08T17:42:39.488Z,5.93
2023-01-08T17:45:08.933Z,6.45
2023-01-08T17:47:37.594Z,6.42
2023-01-08T17:50:07.961Z,6.24
2023-01-08T17:52:38.056Z,6.04
2023-01-08T17:55:07.234Z,6.60
2023-01-08T17:57:35.574Z,6.12
2023-01-08T18:00:05.621Z,6.26
2023-01-08T18:02:34.544Z,6.11
2023-01-08T18:05:02.818Z,6.28
2023-01-08T18:07:34.775Z,6.18
2023-01-08T18:10:03.050Z,6.37
2023-01-08T18:12:32.593Z,6.36
2023-01-08T18:15:00.870Z,6.20
2023-01-08T18:17:31.158Z,5.91
2023-01-08T18:19:59.380Z,6.12
2023-01-08T18:22:27.449Z,6.03
2023-01-08T18:24:57.172Z,6.11
2023-01-08T18:27:25.742Z,5.98
2023-01-08T18:29:54.797Z,6.13
2023-01-08T18:32:26.047Z,6.04
2023-01-08T18:34:55.511Z,6.51
2023-01-08T18:37:23.762Z,6.54
2023-01-08T18:39:52.074Z,7.11
2023-01-08T18:42:27.424Z,6.61
2023-01-08T18:44:56.112Z,6.42
2023-01-08T18:47:24.901Z,6.64
2023-01-08T18:49:54.063Z,6.24
2023-01-08T18:52:22.979Z,6.31
2023-01-08T18:54:51.419Z,6.72
2023-01-08T18:57:19.679Z,6.77
2023-01-08T18:59:50.823Z,6.79
2023-01-08T19:02:21.873Z,7.12
2023-01-08T19:04:50.803Z,7.43
2023-01-08T19:07:18.822Z,7.43
2023-01-08T19:09:47.567Z,7.58
2023-01-08T19:12:15.968Z,6.66
2023-01-08T19:14:46.339Z,6.86
2023-01-08T19:17:16.902Z,7.38
2023-01-08T19:19:45.027Z,6.88
2023-01-08T19:22:13.190Z,6.99
2023-01-08T19:24:41.787Z,6.52
2023-01-08T19:27:10.317Z,6.12
2023-01-08T19:29:38.833Z,6.18
2023-01-08T19:32:07.657Z,6.26
2023-01-08T19:34:37.829Z,6.77
2023-01-08T19:37:06.375Z,6.43
2023-01-08T19:39:35.138Z,6.70
2023-01-08T19:42:20.569Z,6.69
2023-01-08T19:44:49.239Z,6.90
2023-01-08T19:47:17.235Z,6.83
2023-01-08T19:49:47.787Z,6.50
2023-01-08T19:52:16.812Z,7.07
2023-01-08T19:54:45.638Z,7.13
2023-01-08T19:57:14.072Z,6.93
2023-01-08T19:59:42.280Z,6.14
2023-01-08T20:02:11.751Z,6.64
2023-01-08T20:04:41.604Z,7.06
2023-01-08T20:07:11.221Z,6.46
2023-01-08T20:09:39.957Z,6.11
2023-01-08T20:12:08.543Z,6.68
2023-01-08T20:14:37.185Z,6.61
2023-01-08T20:17:05.603Z,6.96
2023-01-08T20:19:34.861Z,7.13
2023-01-08T20:22:03.388Z,7.44
2023-01-08T20:24:33.008Z,7.33
2023-01-08T20:27:01.454Z,6.89
2023-01-08T20:29:29.734Z,6.48
2023-01-08T20:31:59.571Z,6.69
2023-01-08T20:34:28.343Z,6.21
2023-01-08T20:36:57.519Z,6.92
2023-01-08T20:39:26.011Z,7.06
2023-01-08T20:42:03.545Z,6.75
2023-01-08T20:44:32.440Z,6.33
2023-01-08T20:47:00.536Z,6.53
2023-01-08T20:49:29.767Z,5.99
2023-01-08T20:52:00.399Z,5.78
2023-01-08T20:54:30.063Z,5.68
2023-01-08T20:57:01.044Z,6.05
2023-01-08T20:59:29.984Z,6.15
2023-01-08T21:01:58.283Z,6.20
2023-01-08T21:04:26.520Z,6.83
2023-01-08T21:06:54.725Z,6.34
2023-01-08T21:09:23.022Z,7.01
2023-01-08T21:11:51.442Z,6.57
2023-01-08T21:14:21.006Z,6.77
2023-01-08T21:16:49.038Z,6.34
2023-01-08T21:19:17.558Z,6.19
2023-01-08T21:21:45.860Z,6.17
2023-01-08T21:24:14.780Z,6.42
2023-01-08T21:26:46.127Z,6.81
2023-01-08T21:29:14.843Z,7.04
2023-01-08T21:31:44.923Z,6.75
2023-01-08T21:34:14.059Z,6.77
2023-01-08T21:36:42.222Z,6.40
2023-01-08T21:39:11.826Z,6.00
2023-01-08T21:41:57.228Z,5.87
2023-01-08T21:44:44.458Z,6.31
2023-01-08T21:47:16.945Z,6.08
2023-01-08T21:49:46.046Z,6.15
2023-01-08T21:52:32.058Z,6.17
2023-01-08T21:55:00.590Z,6.55
2023-01-08T21:57:29.135Z,6.59
2023-01-08T21:59:58.327Z,6.68
2023-01-08T22:02:27.924Z,6.42
2023-01-08T22:04:56.573Z,5.82
2023-01-08T22:07:24.969Z,5.86
2023-01-08T22:09:53.488Z,5.82
2023-01-08T22:12:22.850Z,5.72
2023-01-08T22:14:53.181Z,5.97
2023-01-08T22:17:21.983Z,5.53
2023-01-08T22:19:51.721Z,5.57
2023-01-08T22:22:20.095Z,5.44
2023-01-08T22:24:48.504Z,5.60
2023-01-08T22:27:17.045Z,5.90
2023-01-08T22:29:45.365Z,5.33
2023-01-08T22:32:13.686Z,5.40
2023-01-08T22:34:42.105Z,4.80
2023-01-08T22:37:11.893Z,5.35
2023-01-08T22:39:40.219Z,5.38
2023-01-08T22:42:08.227Z,5.29
2023-01-08T22:44:36.771Z,5.28
2023-01-08T22:47:06.240Z,4.98
2023-01-08T22:49:34.736Z,5.11
2023-01-08T22:52:03.151Z,5.01
2023-01-08T22:54:33.129Z,5.18
2023-01-08T22:57:01.477Z,5.03
2023-01-08T22:59:29.522Z,5.49
2023-01-08T23:01:57.601Z,5.78
2023-01-08T23:04:26.322Z,5.30
2023-01-08T23:06:54.374Z,5.54
2023-01-08T23:09:22.597Z,5.32
2023-01-08T23:11:53.010Z,5.23
2023-01-08T23:14:21.422Z,5.48
2023-01-08T23:16:49.787Z,5.43
2023-01-08T23:19:18.080Z,5.43
2023-01-08T23:21:46.228Z,5.50
2023-01-08T23:24:14.906Z,5.55
2023-01-08T23:26:43.795Z,5.13
2023-01-08T23:29:13.337Z,5.66
2023-01-08T23:31:44.225Z,5.63
2023-01-08T23:34:13.070Z,5.73
2023-01-08T23:36:43.077Z,5.40
2023-01-08T23:39:11.569Z,5.52
2023-01-08T23:41:40.087Z,5.80
2023-01-08T23:44:16.044Z,5.77
2023-01-08T23:46:45.490Z,5.75
2023-01-08T23:49:13.825Z,5.94
2023-01-08T23:51:42.807Z,5.71
2023-01-08T23:54:11.495Z,5.61
2023-01-08T23:56:39.758Z,5.62
2023-01-08T23:59:08.331Z,5.41
